sensor_id;sensor_type;location;lat;lon;timestamp;temperature;humidity
4578;DHT22;2301;47.354;8.528;2022-10-23T00:00:16;17.60;91.40
4578;DHT22;2301;47.354;8.528;2022-10-23T00:02:43;17.60;91.30
4578;DHT22;2301;47.354;8.528;2022-10-23T00:05:10;17.60;91.30
4578;DHT22;2301;47.354;8.528;2022-10-23T00:07:37;17.50;91.30
4578;DHT22;2301;47.354;8.528;2022-10-23T00:10:05;17.50;91.30
4578;DHT22;2301;47.354;8.528;2022-10-23T00:12:32;17.50;91.30
4578;DHT22;2301;47.354;8.528;2022-10-23T00:14:59;17.50;91.20
4578;DHT22;2301;47.354;8.528;2022-10-23T00:17:27;17.50;91.20
4578;DHT22;2301;47.354;8.528;2022-10-23T00:19:57;17.50;91.10
4578;DHT22;2301;47.354;8.528;2022-10-23T00:22:24;17.50;91.20
4578;DHT22;2301;47.354;8.528;2022-10-23T00:24:51;17.50;91.50
4578;DHT22;2301;47.354;8.528;2022-10-23T00:27:18;17.50;91.10
4578;DHT22;2301;47.354;8.528;2022-10-23T00:29:45;17.40;91.10
4578;DHT22;2301;47.354;8.528;2022-10-23T00:32:12;17.50;91.10
4578;DHT22;2301;47.354;8.528;2022-10-23T00:34:40;17.50;91.10
4578;DHT22;2301;47.354;8.528;2022-10-23T00:37:07;17.50;91.00
4578;DHT22;2301;47.354;8.528;2022-10-23T00:39:34;17.50;91.00
4578;DHT22;2301;47.354;8.528;2022-10-23T00:42:01;17.50;90.90
4578;DHT22;2301;47.354;8.528;2022-10-23T00:47:32;17.40;90.80
4578;DHT22;2301;47.354;8.528;2022-10-23T00:50:01;17.40;90.90
4578;DHT22;2301;47.354;8.528;2022-10-23T00:52:29;17.40;90.90
4578;DHT22;2301;47.354;8.528;2022-10-23T00:54:57;17.40;91.00
4578;DHT22;2301;47.354;8.528;2022-10-23T00:57:24;17.40;91.10
4578;DHT22;2301;47.354;8.528;2022-10-23T00:59:51;17.40;90.90
4578;DHT22;2301;47.354;8.528;2022-10-23T01:02:18;17.40;90.90
4578;DHT22;2301;47.354;8.528;2022-10-23T01:04:45;17.40;91.00
4578;DHT22;2301;47.354;8.528;2022-10-23T01:07:17;17.40;91.00
4578;DHT22;2301;47.354;8.528;2022-10-23T01:09:53;17.40;91.10
4578;DHT22;2301;47.354;8.528;2022-10-23T01:12:27;17.40;91.20
4578;DHT22;2301;47.354;8.528;2022-10-23T01:15:04;17.40;91.10
4578;DHT22;2301;47.354;8.528;2022-10-23T01:17:34;17.40;91.00
4578;DHT22;2301;47.354;8.528;2022-10-23T01:20:13;17.40;91.00
4578;DHT22;2301;47.354;8.528;2022-10-23T01:26:00;17.40;91.10
4578;DHT22;2301;47.354;8.528;2022-10-23T01:28:35;17.40;91.50
4578;DHT22;2301;47.354;8.528;2022-10-23T01:31:09;17.40;91.20
4578;DHT22;2301;47.354;8.528;2022-10-23T01:33:40;17.40;91.10
4578;DHT22;2301;47.354;8.528;2022-10-23T01:36:11;17.40;91.10
4578;DHT22;2301;47.354;8.528;2022-10-23T01:38:45;17.40;91.20
4578;DHT22;2301;47.354;8.528;2022-10-23T01:41:18;17.40;91.10
4578;DHT22;2301;47.354;8.528;2022-10-23T01:43:53;17.40;91.10
4578;DHT22;2301;47.354;8.528;2022-10-23T01:46:23;17.40;91.10
4578;DHT22;2301;47.354;8.528;2022-10-23T01:48:53;17.40;90.90
4578;DHT22;2301;47.354;8.528;2022-10-23T01:51:24;17.30;90.90
4578;DHT22;2301;47.354;8.528;2022-10-23T01:53:56;17.40;91.10
4578;DHT22;2301;47.354;8.528;2022-10-23T01:56:29;17.40;91.00
4578;DHT22;2301;47.354;8.528;2022-10-23T01:59:02;17.30;90.90
4578;DHT22;2301;47.354;8.528;2022-10-23T02:01:31;17.30;90.80
4578;DHT22;2301;47.354;8.528;2022-10-23T02:04:00;17.30;91.00
4578;DHT22;2301;47.354;8.528;2022-10-23T02:06:28;17.20;90.90
4578;DHT22;2301;47.354;8.528;2022-10-23T02:08:56;17.20;91.10
4578;DHT22;2301;47.354;8.528;2022-10-23T02:11:23;17.20;91.10
4578;DHT22;2301;47.354;8.528;2022-10-23T02:13:55;17.20;91.00
4578;DHT22;2301;47.354;8.528;2022-10-23T02:16:29;17.20;90.80
4578;DHT22;2301;47.354;8.528;2022-10-23T02:19:08;17.20;91.00
4578;DHT22;2301;47.354;8.528;2022-10-23T02:21:42;17.10;90.90
4578;DHT22;2301;47.354;8.528;2022-10-23T02:24:13;17.20;91.10
4578;DHT22;2301;47.354;8.528;2022-10-23T02:26:45;17.20;91.20
4578;DHT22;2301;47.354;8.528;2022-10-23T02:29:18;17.20;91.00
4578;DHT22;2301;47.354;8.528;2022-10-23T02:31:48;17.30;91.10
4578;DHT22;2301;47.354;8.528;2022-10-23T02:34:15;17.20;90.90
4578;DHT22;2301;47.354;8.528;2022-10-23T02:36:42;17.10;90.80
4578;DHT22;2301;47.354;8.528;2022-10-23T02:39:09;17.20;91.00
4578;DHT22;2301;47.354;8.528;2022-10-23T02:41:39;17.20;91.10
4578;DHT22;2301;47.354;8.528;2022-10-23T02:47:16;17.10;90.80
4578;DHT22;2301;47.354;8.528;2022-10-23T02:49:51;17.10;91.00
4578;DHT22;2301;47.354;8.528;2022-10-23T02:52:22;17.10;91.10
4578;DHT22;2301;47.354;8.528;2022-10-23T02:55:03;17.20;91.00
4578;DHT22;2301;47.354;8.528;2022-10-23T02:57:35;17.20;90.60
4578;DHT22;2301;47.354;8.528;2022-10-23T03:00:09;17.10;90.90
4578;DHT22;2301;47.354;8.528;2022-10-23T03:02:40;17.10;90.80
4578;DHT22;2301;47.354;8.528;2022-10-23T03:05:13;17.10;90.90
4578;DHT22;2301;47.354;8.528;2022-10-23T03:07:42;17.10;91.30
4578;DHT22;2301;47.354;8.528;2022-10-23T03:10:10;17.10;90.80
4578;DHT22;2301;47.354;8.528;2022-10-23T03:12:37;17.10;90.90
4578;DHT22;2301;47.354;8.528;2022-10-23T03:15:06;17.10;90.80
4578;DHT22;2301;47.354;8.528;2022-10-23T03:17:33;17.00;90.50
4578;DHT22;2301;47.354;8.528;2022-10-23T03:20:01;17.00;90.70
4578;DHT22;2301;47.354;8.528;2022-10-23T03:22:28;17.00;90.60
4578;DHT22;2301;47.354;8.528;2022-10-23T03:24:55;17.00;90.70
4578;DHT22;2301;47.354;8.528;2022-10-23T03:27:22;17.00;90.90
4578;DHT22;2301;47.354;8.528;2022-10-23T03:29:49;17.00;90.80
4578;DHT22;2301;47.354;8.528;2022-10-23T03:32:16;17.10;90.80
4578;DHT22;2301;47.354;8.528;2022-10-23T03:34:43;17.10;90.90
4578;DHT22;2301;47.354;8.528;2022-10-23T03:37:11;17.00;90.50
4578;DHT22;2301;47.354;8.528;2022-10-23T03:39:38;17.00;90.50
4578;DHT22;2301;47.354;8.528;2022-10-23T03:42:05;17.00;91.10
4578;DHT22;2301;47.354;8.528;2022-10-23T03:44:32;17.10;90.90
4578;DHT22;2301;47.354;8.528;2022-10-23T03:47:00;17.00;90.50
4578;DHT22;2301;47.354;8.528;2022-10-23T03:49:27;17.10;90.70
4578;DHT22;2301;47.354;8.528;2022-10-23T03:51:54;17.10;90.80
4578;DHT22;2301;47.354;8.528;2022-10-23T03:54:24;17.00;90.30
4578;DHT22;2301;47.354;8.528;2022-10-23T03:56:52;17.00;90.50
4578;DHT22;2301;47.354;8.528;2022-10-23T03:59:19;17.00;90.60
4578;DHT22;2301;47.354;8.528;2022-10-23T04:01:46;16.90;90.10
4578;DHT22;2301;47.354;8.528;2022-10-23T04:04:13;16.90;90.50
4578;DHT22;2301;47.354;8.528;2022-10-23T04:06:40;16.90;90.80
4578;DHT22;2301;47.354;8.528;2022-10-23T04:09:07;16.90;90.40
4578;DHT22;2301;47.354;8.528;2022-10-23T04:11:35;16.80;90.60
4578;DHT22;2301;47.354;8.528;2022-10-23T04:14:02;16.90;90.80
4578;DHT22;2301;47.354;8.528;2022-10-23T04:16:29;16.90;90.70
4578;DHT22;2301;47.354;8.528;2022-10-23T04:18:57;16.90;90.70
4578;DHT22;2301;47.354;8.528;2022-10-23T04:21:24;16.90;90.70
4578;DHT22;2301;47.354;8.528;2022-10-23T04:23:51;16.90;90.40
4578;DHT22;2301;47.354;8.528;2022-10-23T04:26:17;16.80;90.60
4578;DHT22;2301;47.354;8.528;2022-10-23T04:28:46;16.80;90.50
4578;DHT22;2301;47.354;8.528;2022-10-23T04:31:13;16.80;90.60
4578;DHT22;2301;47.354;8.528;2022-10-23T04:33:40;16.80;90.80
4578;DHT22;2301;47.354;8.528;2022-10-23T04:36:07;16.80;90.70
4578;DHT22;2301;47.354;8.528;2022-10-23T04:38:34;16.80;90.90
4578;DHT22;2301;47.354;8.528;2022-10-23T04:41:01;16.80;91.00
4578;DHT22;2301;47.354;8.528;2022-10-23T04:43:28;16.90;90.80
4578;DHT22;2301;47.354;8.528;2022-10-23T04:45:57;16.80;90.60
4578;DHT22;2301;47.354;8.528;2022-10-23T04:48:24;16.80;90.80
4578;DHT22;2301;47.354;8.528;2022-10-23T04:50:54;16.80;90.50
4578;DHT22;2301;47.354;8.528;2022-10-23T04:53:22;16.80;90.40
4578;DHT22;2301;47.354;8.528;2022-10-23T04:55:49;16.80;90.70
4578;DHT22;2301;47.354;8.528;2022-10-23T04:58:17;16.80;90.60
4578;DHT22;2301;47.354;8.528;2022-10-23T05:00:44;16.80;90.60
4578;DHT22;2301;47.354;8.528;2022-10-23T05:03:13;16.80;90.70
4578;DHT22;2301;47.354;8.528;2022-10-23T05:05:40;16.80;90.60
4578;DHT22;2301;47.354;8.528;2022-10-23T05:08:08;16.80;90.60
4578;DHT22;2301;47.354;8.528;2022-10-23T05:10:35;16.80;90.70
4578;DHT22;2301;47.354;8.528;2022-10-23T05:13:03;16.70;90.50
4578;DHT22;2301;47.354;8.528;2022-10-23T05:15:30;16.80;90.70
4578;DHT22;2301;47.354;8.528;2022-10-23T05:18:00;16.80;90.60
4578;DHT22;2301;47.354;8.528;2022-10-23T05:20:33;16.80;90.40
4578;DHT22;2301;47.354;8.528;2022-10-23T05:23:01;16.70;90.50
4578;DHT22;2301;47.354;8.528;2022-10-23T05:25:29;16.70;90.60
4578;DHT22;2301;47.354;8.528;2022-10-23T05:27:56;16.70;90.50
4578;DHT22;2301;47.354;8.528;2022-10-23T05:30:23;16.80;90.60
4578;DHT22;2301;47.354;8.528;2022-10-23T05:32:50;16.80;90.60
4578;DHT22;2301;47.354;8.528;2022-10-23T05:35:21;16.70;90.60
4578;DHT22;2301;47.354;8.528;2022-10-23T05:37:53;16.70;90.60
4578;DHT22;2301;47.354;8.528;2022-10-23T05:40:21;16.70;90.60
4578;DHT22;2301;47.354;8.528;2022-10-23T05:42:48;16.70;90.60
4578;DHT22;2301;47.354;8.528;2022-10-23T05:45:15;16.70;90.60
4578;DHT22;2301;47.354;8.528;2022-10-23T05:47:43;16.70;88.70
4578;DHT22;2301;47.354;8.528;2022-10-23T05:50:10;16.40;85.90
4578;DHT22;2301;47.354;8.528;2022-10-23T05:52:37;16.20;85.10
4578;DHT22;2301;47.354;8.528;2022-10-23T05:55:06;16.00;85.10
4578;DHT22;2301;47.354;8.528;2022-10-23T05:57:33;15.70;85.70
4578;DHT22;2301;47.354;8.528;2022-10-23T06:00:00;15.60;86.40
4578;DHT22;2301;47.354;8.528;2022-10-23T06:02:27;15.40;87.10
4578;DHT22;2301;47.354;8.528;2022-10-23T06:04:54;15.30;87.50
4578;DHT22;2301;47.354;8.528;2022-10-23T06:07:22;15.10;87.80
4578;DHT22;2301;47.354;8.528;2022-10-23T06:09:50;15.10;88.30
4578;DHT22;2301;47.354;8.528;2022-10-23T06:12:19;14.90;88.40
4578;DHT22;2301;47.354;8.528;2022-10-23T06:14:46;14.80;88.80
4578;DHT22;2301;47.354;8.528;2022-10-23T06:17:13;14.70;89.00
4578;DHT22;2301;47.354;8.528;2022-10-23T06:19:40;14.60;89.40
4578;DHT22;2301;47.354;8.528;2022-10-23T06:22:07;14.60;89.90
4578;DHT22;2301;47.354;8.528;2022-10-23T06:24:33;14.50;90.10
4578;DHT22;2301;47.354;8.528;2022-10-23T06:27:01;14.40;90.30
4578;DHT22;2301;47.354;8.528;2022-10-23T06:29:29;14.40;90.40
4578;DHT22;2301;47.354;8.528;2022-10-23T06:31:56;14.30;90.50
4578;DHT22;2301;47.354;8.528;2022-10-23T06:34:23;14.30;91.00
4578;DHT22;2301;47.354;8.528;2022-10-23T06:36:50;14.30;90.80
4578;DHT22;2301;47.354;8.528;2022-10-23T06:39:16;14.30;90.90
4578;DHT22;2301;47.354;8.528;2022-10-23T06:41:45;14.30;90.90
4578;DHT22;2301;47.354;8.528;2022-10-23T06:44:12;14.30;91.00
4578;DHT22;2301;47.354;8.528;2022-10-23T06:46:40;14.20;91.10
4578;DHT22;2301;47.354;8.528;2022-10-23T06:49:12;14.20;91.20
4578;DHT22;2301;47.354;8.528;2022-10-23T06:51:39;14.20;91.30
4578;DHT22;2301;47.354;8.528;2022-10-23T06:54:06;14.10;91.50
4578;DHT22;2301;47.354;8.528;2022-10-23T06:56:32;14.10;91.60
4578;DHT22;2301;47.354;8.528;2022-10-23T06:59:00;14.10;91.70
4578;DHT22;2301;47.354;8.528;2022-10-23T07:01:27;14.10;91.80
4578;DHT22;2301;47.354;8.528;2022-10-23T07:03:55;14.10;91.90
4578;DHT22;2301;47.354;8.528;2022-10-23T07:06:22;14.10;92.00
4578;DHT22;2301;47.354;8.528;2022-10-23T07:08:49;14.00;92.10
4578;DHT22;2301;47.354;8.528;2022-10-23T07:11:17;14.00;92.20
4578;DHT22;2301;47.354;8.528;2022-10-23T07:13:44;14.10;92.50
4578;DHT22;2301;47.354;8.528;2022-10-23T07:16:13;14.10;92.60
4578;DHT22;2301;47.354;8.528;2022-10-23T07:18:41;14.10;92.70
4578;DHT22;2301;47.354;8.528;2022-10-23T07:21:09;14.10;92.80
4578;DHT22;2301;47.354;8.528;2022-10-23T07:23:36;14.10;92.80
4578;DHT22;2301;47.354;8.528;2022-10-23T07:26:05;14.10;92.80
4578;DHT22;2301;47.354;8.528;2022-10-23T07:28:32;14.20;92.90
4578;DHT22;2301;47.354;8.528;2022-10-23T07:30:59;14.20;92.90
4578;DHT22;2301;47.354;8.528;2022-10-23T07:33:26;14.20;93.00
4578;DHT22;2301;47.354;8.528;2022-10-23T07:35:53;14.30;93.10
4578;DHT22;2301;47.354;8.528;2022-10-23T07:38:22;14.30;93.10
4578;DHT22;2301;47.354;8.528;2022-10-23T07:40:48;14.30;93.20
4578;DHT22;2301;47.354;8.528;2022-10-23T07:43:15;14.30;93.30
4578;DHT22;2301;47.354;8.528;2022-10-23T07:45:46;14.40;93.30
4578;DHT22;2301;47.354;8.528;2022-10-23T07:48:14;14.40;93.40
4578;DHT22;2301;47.354;8.528;2022-10-23T07:50:41;14.40;93.40
4578;DHT22;2301;47.354;8.528;2022-10-23T07:53:16;14.40;93.40
4578;DHT22;2301;47.354;8.528;2022-10-23T07:55:51;14.40;93.50
4578;DHT22;2301;47.354;8.528;2022-10-23T07:58:18;14.50;93.50
4578;DHT22;2301;47.354;8.528;2022-10-23T08:00:45;14.50;93.50
4578;DHT22;2301;47.354;8.528;2022-10-23T08:03:17;14.60;93.60
4578;DHT22;2301;47.354;8.528;2022-10-23T08:05:44;14.60;93.60
4578;DHT22;2301;47.354;8.528;2022-10-23T08:08:11;14.70;93.70
4578;DHT22;2301;47.354;8.528;2022-10-23T08:10:38;14.70;93.70
4578;DHT22;2301;47.354;8.528;2022-10-23T08:13:09;14.80;94.40
4578;DHT22;2301;47.354;8.528;2022-10-23T08:15:37;15.00;95.20
4578;DHT22;2301;47.354;8.528;2022-10-23T08:18:04;15.10;94.40
4578;DHT22;2301;47.354;8.528;2022-10-23T08:20:30;15.10;93.80
4578;DHT22;2301;47.354;8.528;2022-10-23T08:22:58;15.10;93.30
4578;DHT22;2301;47.354;8.528;2022-10-23T08:25:25;15.10;93.10
4578;DHT22;2301;47.354;8.528;2022-10-23T08:27:52;15.10;93.10
4578;DHT22;2301;47.354;8.528;2022-10-23T08:30:20;15.10;93.00
4578;DHT22;2301;47.354;8.528;2022-10-23T08:32:47;15.10;93.00
4578;DHT22;2301;47.354;8.528;2022-10-23T08:35:15;15.10;93.10
4578;DHT22;2301;47.354;8.528;2022-10-23T08:37:42;15.10;93.10
4578;DHT22;2301;47.354;8.528;2022-10-23T08:40:13;15.10;93.00
4578;DHT22;2301;47.354;8.528;2022-10-23T08:42:41;15.10;92.90
4578;DHT22;2301;47.354;8.528;2022-10-23T08:45:23;15.10;92.80
4578;DHT22;2301;47.354;8.528;2022-10-23T08:47:55;15.10;92.90
4578;DHT22;2301;47.354;8.528;2022-10-23T08:50:27;15.20;92.90
4578;DHT22;2301;47.354;8.528;2022-10-23T08:53:00;15.30;93.00
4578;DHT22;2301;47.354;8.528;2022-10-23T08:55:31;15.30;92.90
4578;DHT22;2301;47.354;8.528;2022-10-23T08:58:03;15.40;92.90
4578;DHT22;2301;47.354;8.528;2022-10-23T09:00:33;15.50;93.00
4578;DHT22;2301;47.354;8.528;2022-10-23T09:03:02;15.60;93.10
4578;DHT22;2301;47.354;8.528;2022-10-23T09:05:32;15.70;93.00
4578;DHT22;2301;47.354;8.528;2022-10-23T09:08:15;15.70;92.80
4578;DHT22;2301;47.354;8.528;2022-10-23T09:11:05;15.80;92.80
4578;DHT22;2301;47.354;8.528;2022-10-23T09:16:31;15.90;92.60
4578;DHT22;2301;47.354;8.528;2022-10-23T09:19:09;16.00;92.60
4578;DHT22;2301;47.354;8.528;2022-10-23T09:21:37;16.00;92.40
4578;DHT22;2301;47.354;8.528;2022-10-23T09:24:04;16.00;92.30
4578;DHT22;2301;47.354;8.528;2022-10-23T09:26:31;16.10;92.30
4578;DHT22;2301;47.354;8.528;2022-10-23T09:29:05;16.20;92.30
4578;DHT22;2301;47.354;8.528;2022-10-23T09:31:48;16.20;92.20
4578;DHT22;2301;47.354;8.528;2022-10-23T09:34:18;16.20;92.20
4578;DHT22;2301;47.354;8.528;2022-10-23T09:36:48;16.30;92.20
4578;DHT22;2301;47.354;8.528;2022-10-23T09:39:28;16.30;92.20
4578;DHT22;2301;47.354;8.528;2022-10-23T09:41:56;16.40;92.10
4578;DHT22;2301;47.354;8.528;2022-10-23T09:44:24;16.40;92.00
4578;DHT22;2301;47.354;8.528;2022-10-23T09:46:54;16.50;92.10
4578;DHT22;2301;47.354;8.528;2022-10-23T09:49:25;16.50;92.10
4578;DHT22;2301;47.354;8.528;2022-10-23T09:51:58;16.60;92.10
4578;DHT22;2301;47.354;8.528;2022-10-23T09:54:26;16.70;92.10
4578;DHT22;2301;47.354;8.528;2022-10-23T09:56:54;16.80;92.00
4578;DHT22;2301;47.354;8.528;2022-10-23T09:59:25;17.00;92.10
4578;DHT22;2301;47.354;8.528;2022-10-23T10:01:56;17.20;92.20
4578;DHT22;2301;47.354;8.528;2022-10-23T10:04:34;17.40;91.90
4578;DHT22;2301;47.354;8.528;2022-10-23T10:07:02;17.60;91.50
4578;DHT22;2301;47.354;8.528;2022-10-23T10:09:30;17.80;91.30
4578;DHT22;2301;47.354;8.528;2022-10-23T10:12:11;18.00;91.00
4578;DHT22;2301;47.354;8.528;2022-10-23T10:14:51;18.20;90.80
4578;DHT22;2301;47.354;8.528;2022-10-23T10:17:29;18.40;90.40
4578;DHT22;2301;47.354;8.528;2022-10-23T10:20:13;18.60;90.20
4578;DHT22;2301;47.354;8.528;2022-10-23T10:22:45;18.70;89.70
4578;DHT22;2301;47.354;8.528;2022-10-23T10:25:18;19.00;89.30
4578;DHT22;2301;47.354;8.528;2022-10-23T10:27:55;19.20;88.70
4578;DHT22;2301;47.354;8.528;2022-10-23T10:30:28;19.40;87.80
4578;DHT22;2301;47.354;8.528;2022-10-23T10:33:01;19.60;87.10
4578;DHT22;2301;47.354;8.528;2022-10-23T10:35:40;19.70;85.90
4578;DHT22;2301;47.354;8.528;2022-10-23T10:38:28;19.80;85.10
4578;DHT22;2301;47.354;8.528;2022-10-23T10:44:13;20.00;84.90
4578;DHT22;2301;47.354;8.528;2022-10-23T10:46:45;20.00;83.50
4578;DHT22;2301;47.354;8.528;2022-10-23T10:49:18;20.10;84.00
4578;DHT22;2301;47.354;8.528;2022-10-23T10:51:53;20.00;83.00
4578;DHT22;2301;47.354;8.528;2022-10-23T10:54:35;20.00;82.70
4578;DHT22;2301;47.354;8.528;2022-10-23T10:57:14;20.00;82.10
4578;DHT22;2301;47.354;8.528;2022-10-23T10:59:43;19.90;81.90
4578;DHT22;2301;47.354;8.528;2022-10-23T11:02:22;19.90;82.30
4578;DHT22;2301;47.354;8.528;2022-10-23T11:04:58;19.90;82.60
4578;DHT22;2301;47.354;8.528;2022-10-23T11:07:33;19.80;82.20
4578;DHT22;2301;47.354;8.528;2022-10-23T11:10:02;19.80;82.20
4578;DHT22;2301;47.354;8.528;2022-10-23T11:12:30;19.80;81.90
4578;DHT22;2301;47.354;8.528;2022-10-23T11:14:58;19.80;81.80
4578;DHT22;2301;47.354;8.528;2022-10-23T11:17:27;19.80;81.80
4578;DHT22;2301;47.354;8.528;2022-10-23T11:20:02;19.80;81.90
4578;DHT22;2301;47.354;8.528;2022-10-23T11:22:35;19.90;81.30
4578;DHT22;2301;47.354;8.528;2022-10-23T11:25:19;20.00;80.50
4578;DHT22;2301;47.354;8.528;2022-10-23T11:28:10;20.00;80.20
4578;DHT22;2301;47.354;8.528;2022-10-23T11:30:53;20.00;80.60
4578;DHT22;2301;47.354;8.528;2022-10-23T11:34:00;20.00;81.30
4578;DHT22;2301;47.354;8.528;2022-10-23T11:36:42;20.00;81.60
4578;DHT22;2301;47.354;8.528;2022-10-23T11:39:18;19.90;81.00
4578;DHT22;2301;47.354;8.528;2022-10-23T11:41:51;19.90;81.00
4578;DHT22;2301;47.354;8.528;2022-10-23T11:44:25;19.90;81.00
4578;DHT22;2301;47.354;8.528;2022-10-23T11:47:00;19.90;81.00
4578;DHT22;2301;47.354;8.528;2022-10-23T11:49:27;20.00;80.30
4578;DHT22;2301;47.354;8.528;2022-10-23T11:52:04;20.00;80.50
4578;DHT22;2301;47.354;8.528;2022-10-23T11:54:31;20.10;80.40
4578;DHT22;2301;47.354;8.528;2022-10-23T11:57:10;20.20;80.60
4578;DHT22;2301;47.354;8.528;2022-10-23T11:59:59;20.30;80.40
4578;DHT22;2301;47.354;8.528;2022-10-23T12:02:31;20.30;80.50
4578;DHT22;2301;47.354;8.528;2022-10-23T12:05:02;20.40;81.10
4578;DHT22;2301;47.354;8.528;2022-10-23T12:07:33;20.50;80.00
4578;DHT22;2301;47.354;8.528;2022-10-23T12:10:04;20.60;80.10
4578;DHT22;2301;47.354;8.528;2022-10-23T12:12:33;20.70;79.80
4578;DHT22;2301;47.354;8.528;2022-10-23T12:15:15;20.80;79.80
4578;DHT22;2301;47.354;8.528;2022-10-23T12:17:44;20.80;80.00
4578;DHT22;2301;47.354;8.528;2022-10-23T12:20:23;20.80;79.50
4578;DHT22;2301;47.354;8.528;2022-10-23T12:23:08;20.80;78.90
4578;DHT22;2301;47.354;8.528;2022-10-23T12:25:45;20.80;78.50
4578;DHT22;2301;47.354;8.528;2022-10-23T12:28:27;20.80;78.80
4578;DHT22;2301;47.354;8.528;2022-10-23T12:31:01;20.80;78.70
4578;DHT22;2301;47.354;8.528;2022-10-23T12:33:36;20.90;78.60
4578;DHT22;2301;47.354;8.528;2022-10-23T12:36:29;20.80;78.70
4578;DHT22;2301;47.354;8.528;2022-10-23T12:39:26;20.80;78.80
4578;DHT22;2301;47.354;8.528;2022-10-23T12:41:53;20.70;78.70
4578;DHT22;2301;47.354;8.528;2022-10-23T12:44:22;20.70;79.10
4578;DHT22;2301;47.354;8.528;2022-10-23T12:46:53;20.60;79.10
4578;DHT22;2301;47.354;8.528;2022-10-23T12:49:22;20.60;79.60
4578;DHT22;2301;47.354;8.528;2022-10-23T12:51:54;20.60;79.90
4578;DHT22;2301;47.354;8.528;2022-10-23T12:54:21;20.70;80.00
4578;DHT22;2301;47.354;8.528;2022-10-23T12:56:50;20.80;79.70
4578;DHT22;2301;47.354;8.528;2022-10-23T12:59:20;20.80;79.10
4578;DHT22;2301;47.354;8.528;2022-10-23T13:01:48;20.90;78.90
4578;DHT22;2301;47.354;8.528;2022-10-23T13:04:22;20.90;78.90
4578;DHT22;2301;47.354;8.528;2022-10-23T13:06:51;20.90;78.90
4578;DHT22;2301;47.354;8.528;2022-10-23T13:09:22;20.90;78.80
4578;DHT22;2301;47.354;8.528;2022-10-23T13:11:51;21.00;78.60
4578;DHT22;2301;47.354;8.528;2022-10-23T13:14:30;21.00;78.30
4578;DHT22;2301;47.354;8.528;2022-10-23T13:16:59;20.90;78.00
4578;DHT22;2301;47.354;8.528;2022-10-23T13:19:26;20.90;77.70
4578;DHT22;2301;47.354;8.528;2022-10-23T13:21:53;20.90;77.40
4578;DHT22;2301;47.354;8.528;2022-10-23T13:24:21;20.90;77.30
4578;DHT22;2301;47.354;8.528;2022-10-23T13:26:51;20.90;77.00
4578;DHT22;2301;47.354;8.528;2022-10-23T13:29:20;21.00;77.00
4578;DHT22;2301;47.354;8.528;2022-10-23T13:31:49;21.10;76.90
4578;DHT22;2301;47.354;8.528;2022-10-23T13:34:26;21.10;77.20
4578;DHT22;2301;47.354;8.528;2022-10-23T13:37:00;21.10;77.10
4578;DHT22;2301;47.354;8.528;2022-10-23T13:39:29;21.10;76.80
4578;DHT22;2301;47.354;8.528;2022-10-23T13:42:07;21.10;77.00
4578;DHT22;2301;47.354;8.528;2022-10-23T13:44:35;21.10;77.10
4578;DHT22;2301;47.354;8.528;2022-10-23T13:47:03;21.10;77.10
4578;DHT22;2301;47.354;8.528;2022-10-23T13:49:30;21.10;77.10
4578;DHT22;2301;47.354;8.528;2022-10-23T13:51:57;21.10;77.10
4578;DHT22;2301;47.354;8.528;2022-10-23T13:54:26;21.10;77.20
4578;DHT22;2301;47.354;8.528;2022-10-23T13:56:54;21.10;77.30
4578;DHT22;2301;47.354;8.528;2022-10-23T13:59:23;21.10;77.40
4578;DHT22;2301;47.354;8.528;2022-10-23T14:01:50;21.20;77.80
4578;DHT22;2301;47.354;8.528;2022-10-23T14:04:17;21.10;77.20
4578;DHT22;2301;47.354;8.528;2022-10-23T14:06:45;21.10;77.60
4578;DHT22;2301;47.354;8.528;2022-10-23T14:09:13;21.10;78.00
4578;DHT22;2301;47.354;8.528;2022-10-23T14:11:41;21.10;77.60
4578;DHT22;2301;47.354;8.528;2022-10-23T14:14:08;21.10;77.70
4578;DHT22;2301;47.354;8.528;2022-10-23T14:16:36;21.10;77.50
4578;DHT22;2301;47.354;8.528;2022-10-23T14:19:03;21.10;77.50
4578;DHT22;2301;47.354;8.528;2022-10-23T14:21:30;21.00;78.90
4578;DHT22;2301;47.354;8.528;2022-10-23T14:23:57;21.00;78.40
4578;DHT22;2301;47.354;8.528;2022-10-23T14:26:25;21.00;78.60
4578;DHT22;2301;47.354;8.528;2022-10-23T14:28:56;20.90;78.60
4578;DHT22;2301;47.354;8.528;2022-10-23T14:31:24;20.90;78.60
4578;DHT22;2301;47.354;8.528;2022-10-23T14:33:54;20.80;78.80
4578;DHT22;2301;47.354;8.528;2022-10-23T14:36:21;20.70;79.00
4578;DHT22;2301;47.354;8.528;2022-10-23T14:38:49;20.70;78.90
4578;DHT22;2301;47.354;8.528;2022-10-23T14:41:16;20.60;79.10
4578;DHT22;2301;47.354;8.528;2022-10-23T14:43:43;20.60;79.50
4578;DHT22;2301;47.354;8.528;2022-10-23T14:46:12;20.50;79.70
4578;DHT22;2301;47.354;8.528;2022-10-23T14:48:40;20.50;79.60
4578;DHT22;2301;47.354;8.528;2022-10-23T14:51:17;20.50;79.60
4578;DHT22;2301;47.354;8.528;2022-10-23T14:53:44;20.40;79.80
4578;DHT22;2301;47.354;8.528;2022-10-23T14:56:12;20.40;80.10
4578;DHT22;2301;47.354;8.528;2022-10-23T14:58:39;20.30;80.60
4578;DHT22;2301;47.354;8.528;2022-10-23T15:01:07;20.30;81.10
4578;DHT22;2301;47.354;8.528;2022-10-23T15:03:35;20.30;81.50
4578;DHT22;2301;47.354;8.528;2022-10-23T15:06:02;20.20;81.50
4578;DHT22;2301;47.354;8.528;2022-10-23T15:08:30;20.10;81.60
4578;DHT22;2301;47.354;8.528;2022-10-23T15:10:58;20.10;82.30
4578;DHT22;2301;47.354;8.528;2022-10-23T15:13:26;20.10;82.60
4578;DHT22;2301;47.354;8.528;2022-10-23T15:16:01;20.00;82.60
4578;DHT22;2301;47.354;8.528;2022-10-23T15:18:28;20.00;82.80
4578;DHT22;2301;47.354;8.528;2022-10-23T15:20:54;19.90;83.50
4578;DHT22;2301;47.354;8.528;2022-10-23T15:23:21;19.90;84.80
4578;DHT22;2301;47.354;8.528;2022-10-23T15:25:55;19.80;85.60
4578;DHT22;2301;47.354;8.528;2022-10-23T15:28:23;19.70;86.60
4578;DHT22;2301;47.354;8.528;2022-10-23T15:30:50;19.70;87.10
4578;DHT22;2301;47.354;8.528;2022-10-23T15:33:17;19.60;87.80
4578;DHT22;2301;47.354;8.528;2022-10-23T15:35:43;19.60;88.60
4578;DHT22;2301;47.354;8.528;2022-10-23T15:38:10;19.50;89.20
4578;DHT22;2301;47.354;8.528;2022-10-23T15:40:37;19.50;89.70
4578;DHT22;2301;47.354;8.528;2022-10-23T15:43:05;19.50;89.90
4578;DHT22;2301;47.354;8.528;2022-10-23T15:45:32;19.40;90.00
4578;DHT22;2301;47.354;8.528;2022-10-23T15:47:59;19.40;90.20
4578;DHT22;2301;47.354;8.528;2022-10-23T15:50:26;19.40;90.20
4578;DHT22;2301;47.354;8.528;2022-10-23T15:52:56;19.40;90.20
4578;DHT22;2301;47.354;8.528;2022-10-23T15:55:23;19.30;90.50
4578;DHT22;2301;47.354;8.528;2022-10-23T15:57:49;19.30;90.60
4578;DHT22;2301;47.354;8.528;2022-10-23T16:00:18;19.30;90.60
4578;DHT22;2301;47.354;8.528;2022-10-23T16:02:45;19.20;90.70
4578;DHT22;2301;47.354;8.528;2022-10-23T16:05:12;19.20;90.70
4578;DHT22;2301;47.354;8.528;2022-10-23T16:07:38;19.20;90.70
4578;DHT22;2301;47.354;8.528;2022-10-23T16:10:06;19.10;90.70
4578;DHT22;2301;47.354;8.528;2022-10-23T16:12:33;19.10;90.40
4578;DHT22;2301;47.354;8.528;2022-10-23T16:15:00;19.00;90.30
4578;DHT22;2301;47.354;8.528;2022-10-23T16:17:28;19.00;90.00
4578;DHT22;2301;47.354;8.528;2022-10-23T16:19:55;18.90;89.80
4578;DHT22;2301;47.354;8.528;2022-10-23T16:22:22;18.90;89.70
4578;DHT22;2301;47.354;8.528;2022-10-23T16:24:49;18.90;89.60
4578;DHT22;2301;47.354;8.528;2022-10-23T16:27:15;18.90;89.60
4578;DHT22;2301;47.354;8.528;2022-10-23T16:29:42;18.80;89.70
4578;DHT22;2301;47.354;8.528;2022-10-23T16:32:10;18.80;89.50
4578;DHT22;2301;47.354;8.528;2022-10-23T16:34:39;18.80;89.70